createdAt,value
2022-08-11T00:02:27.685Z,23.20
2022-08-11T00:04:58.337Z,23.10
2022-08-11T00:07:27.128Z,23.10
2022-08-11T00:09:56.927Z,23.00
2022-08-11T00:12:25.329Z,22.90
2022-08-11T00:14:59.267Z,22.90
2022-08-11T00:17:32.572Z,22.90
2022-08-11T00:20:16.311Z,22.70
2022-08-11T00:22:48.150Z,22.90
2022-08-11T00:25:17.924Z,22.80
2022-08-11T00:27:47.314Z,22.80
2022-08-11T00:30:17.127Z,22.70
2022-08-11T00:32:47.354Z,22.70
2022-08-11T00:35:54.099Z,22.70
2022-08-11T00:38:08.516Z,22.70
2022-08-11T00:40:40.573Z,22.70
2022-08-11T00:43:20.982Z,22.70
2022-08-11T00:46:06.499Z,22.70
2022-08-11T00:48:41.015Z,22.60
2022-08-11T00:51:21.568Z,22.50
2022-08-11T00:54:03.836Z,22.40
2022-08-11T00:57:04.973Z,22.50
2022-08-11T01:00:07.098Z,22.40
2022-08-11T01:02:56.787Z,22.30
2022-08-11T01:05:39.704Z,22.40
2022-08-11T01:08:53.610Z,22.20
2022-08-11T01:11:55.758Z,22.30
2022-08-11T01:15:16.516Z,22.20
2022-08-11T01:18:30.151Z,22.20
2022-08-11T01:21:33.639Z,22.20
2022-08-11T01:24:43.791Z,22.10
2022-08-11T01:27:28.864Z,22.00
2022-08-11T01:30:32.166Z,21.90
2022-08-11T01:33:32.665Z,21.90
2022-08-11T01:36:33.628Z,21.80
2022-08-11T01:39:39.825Z,21.80
2022-08-11T01:43:04.328Z,21.80
2022-08-11T01:45:38.297Z,21.70
2022-08-11T01:48:14.821Z,21.70
2022-08-11T01:51:04.563Z,21.70
2022-08-11T01:53:46.385Z,21.60
2022-08-11T01:56:34.358Z,21.50
2022-08-11T01:59:12.269Z,21.40
2022-08-11T02:02:01.743Z,21.40
2022-08-11T02:04:34.712Z,21.30
2022-08-11T02:07:14.669Z,21.30
2022-08-11T02:10:35.121Z,21.30
2022-08-11T02:13:14.123Z,21.20
2022-08-11T02:15:47.225Z,21.10
2022-08-11T02:18:21.963Z,21.00
2022-08-11T02:21:23.931Z,20.90
2022-08-11T02:24:07.077Z,20.90
2022-08-11T02:26:42.643Z,20.90
2022-08-11T02:29:18.642Z,20.80
2022-08-11T02:32:29.962Z,20.80
2022-08-11T02:35:11.023Z,21.10
2022-08-11T02:37:49.522Z,21.00
2022-08-11T02:40:23.829Z,20.90
2022-08-11T02:43:06.515Z,20.80
2022-08-11T02:45:49.311Z,21.00
2022-08-11T02:48:51.498Z,20.70
2022-08-11T02:51:27.317Z,20.70
2022-08-11T02:54:08.018Z,20.80
2022-08-11T02:56:44.881Z,20.90
2022-08-11T02:59:47.163Z,20.90
2022-08-11T03:02:23.435Z,20.70
2022-08-11T03:05:04.134Z,20.80
2022-08-11T03:07:41.533Z,20.70
2022-08-11T03:10:15.082Z,20.70
2022-08-11T03:13:04.360Z,20.80
2022-08-11T03:16:04.526Z,20.70
2022-08-11T03:18:39.371Z,20.80
2022-08-11T03:21:14.462Z,20.80
2022-08-11T03:23:51.100Z,20.80
2022-08-11T03:26:27.037Z,20.80
2022-08-11T03:29:05.664Z,20.80
2022-08-11T03:31:42.569Z,20.70
2022-08-11T03:34:17.623Z,20.80
2022-08-11T03:37:37.916Z,20.90
2022-08-11T03:40:17.277Z,20.80
2022-08-11T03:42:55.851Z,20.60
2022-08-11T03:45:28.306Z,20.40
2022-08-11T03:48:11.435Z,20.40
2022-08-11T03:51:08.981Z,20.40
2022-08-11T03:53:56.854Z,20.30
2022-08-11T03:57:14.087Z,20.10
2022-08-11T04:00:11.316Z,20.10
2022-08-11T04:03:12.693Z,20.20
2022-08-11T04:06:13.077Z,20.20
2022-08-11T04:09:18.179Z,20.10
2022-08-11T04:12:14.666Z,20.00
2022-08-11T04:15:32.475Z,19.90
2022-08-11T04:18:40.935Z,19.90
2022-08-11T04:21:58.153Z,19.80
2022-08-11T04:24:42.777Z,19.80
2022-08-11T04:27:37.439Z,19.90
2022-08-11T04:30:14.761Z,19.80
2022-08-11T04:33:04.992Z,19.80
2022-08-11T04:35:47.340Z,19.80
2022-08-11T04:38:46.743Z,19.90
2022-08-11T04:42:31.693Z,20.00
2022-08-11T04:45:35.547Z,20.00
2022-08-11T04:48:47.740Z,20.00
2022-08-11T04:52:02.669Z,20.20
2022-08-11T04:55:07.264Z,20.20
2022-08-11T04:58:02.303Z,20.10
2022-08-11T05:00:52.547Z,20.20
2022-08-11T05:03:47.618Z,20.40
2022-08-11T05:07:00.219Z,20.50
2022-08-11T05:09:50.607Z,20.60
2022-08-11T05:12:36.990Z,20.60
2022-08-11T05:15:23.523Z,20.70
2022-08-11T05:18:19.551Z,20.90
2022-08-11T05:21:10.399Z,21.10
2022-08-11T05:24:04.710Z,21.10
2022-08-11T05:27:01.500Z,21.40
2022-08-11T05:29:58.583Z,21.60
2022-08-11T05:33:00.884Z,21.80
2022-08-11T05:36:00.312Z,21.60
2022-08-11T05:38:45.523Z,21.90
2022-08-11T05:41:31.849Z,22.20
2022-08-11T05:44:22.358Z,22.20
2022-08-11T05:47:09.218Z,22.60
2022-08-11T05:49:56.690Z,22.80
2022-08-11T05:52:45.063Z,23.00
2022-08-11T05:55:33.737Z,23.10
2022-08-11T05:58:03.830Z,23.40
2022-08-11T06:00:42.001Z,23.50
2022-08-11T06:03:11.015Z,23.50
2022-08-11T06:05:44.018Z,23.60
2022-08-11T06:08:13.598Z,23.50
2022-08-11T06:10:43.488Z,23.70
2022-08-11T06:13:16.181Z,23.80
2022-08-11T06:15:50.435Z,24.10
2022-08-11T06:18:18.500Z,24.40
2022-08-11T06:20:50.253Z,24.00
2022-08-11T06:23:20.523Z,24.50
2022-08-11T06:25:49.383Z,24.10
2022-08-11T06:28:20.736Z,24.70
2022-08-11T06:30:50.585Z,25.00
2022-08-11T06:33:22.581Z,25.30
2022-08-11T06:36:01.105Z,25.40
2022-08-11T06:38:44.190Z,25.70
2022-08-11T06:41:33.428Z,25.90
2022-08-11T06:44:10.272Z,25.90
2022-08-11T06:46:41.467Z,25.70
2022-08-11T06:49:31.122Z,25.90
2022-08-11T06:52:01.779Z,26.00
2022-08-11T06:54:35.590Z,26.30
2022-08-11T06:57:31.649Z,26.40
2022-08-11T07:00:17.873Z,26.30
2022-08-11T07:03:00.669Z,26.60
2022-08-11T07:05:44.044Z,27.20
2022-08-11T07:09:00.394Z,27.60
2022-08-11T07:12:21.166Z,27.10
2022-08-11T07:15:10.614Z,27.40
2022-08-11T07:17:44.099Z,27.70
2022-08-11T07:20:32.318Z,27.80
2022-08-11T07:23:20.664Z,28.10
2022-08-11T07:26:10.539Z,28.20
2022-08-11T07:28:59.169Z,28.40
2022-08-11T07:31:35.837Z,28.20
2022-08-11T07:34:17.565Z,28.40
2022-08-11T07:36:52.236Z,28.20
2022-08-11T07:39:23.115Z,27.50
2022-08-11T07:41:55.009Z,28.10
2022-08-11T07:44:29.432Z,28.50
2022-08-11T07:47:18.874Z,28.20
2022-08-11T07:50:07.124Z,28.60
2022-08-11T07:52:38.414Z,28.80
2022-08-11T07:55:10.347Z,28.90
2022-08-11T07:58:15.498Z,29.10
2022-08-11T08:01:03.899Z,29.70
2022-08-11T08:03:57.071Z,29.80
2022-08-11T08:06:43.564Z,29.60
2022-08-11T08:09:31.351Z,30.10
2022-08-11T08:12:20.007Z,30.60
2022-08-11T08:15:05.352Z,30.80
2022-08-11T08:18:20.620Z,30.80
2022-08-11T08:20:47.480Z,30.90
2022-08-11T08:23:17.311Z,30.40
2022-08-11T08:25:47.379Z,30.70
2022-08-11T08:28:17.657Z,31.00
2022-08-11T08:30:47.742Z,31.20
2022-08-11T08:33:18.645Z,31.20
2022-08-11T08:35:55.677Z,31.10
2022-08-11T08:38:24.399Z,31.40
2022-08-11T08:40:56.473Z,31.50
2022-08-11T08:43:25.207Z,31.30
2022-08-11T08:45:57.178Z,31.70
2022-08-11T08:48:26.910Z,32.00
2022-08-11T08:51:15.361Z,32.30
2022-08-11T08:53:52.615Z,32.40
2022-08-11T08:56:28.894Z,32.60
2022-08-11T08:59:00.360Z,32.50
2022-08-11T09:01:31.643Z,32.50
2022-08-11T09:04:05.385Z,32.60
2022-08-11T09:06:40.968Z,32.70
2022-08-11T09:09:10.058Z,32.60
2022-08-11T09:11:54.155Z,32.70
2022-08-11T09:14:46.294Z,32.90
2022-08-11T09:17:15.001Z,33.10
2022-08-11T09:19:42.985Z,33.20
2022-08-11T09:22:38.185Z,33.50
2022-08-11T09:25:25.170Z,33.60
2022-08-11T09:27:56.527Z,33.40
2022-08-11T09:30:26.467Z,33.70
2022-08-11T09:32:57.897Z,33.80
2022-08-11T09:35:27.624Z,34.00
2022-08-11T09:38:14.244Z,33.70
2022-08-11T09:40:44.655Z,34.00
2022-08-11T09:43:33.730Z,34.10
2022-08-11T09:46:02.333Z,34.30
2022-08-11T09:48:33.357Z,34.40
2022-08-11T09:51:02.310Z,34.40
2022-08-11T09:53:36.493Z,34.20
2022-08-11T09:56:22.335Z,34.40
2022-08-11T09:58:51.684Z,34.40
2022-08-11T10:01:32.590Z,34.50
2022-08-11T10:04:04.129Z,34.30
2022-08-11T10:06:54.421Z,34.70
2022-08-11T10:09:25.981Z,34.80
2022-08-11T10:11:57.926Z,34.70
2022-08-11T10:14:46.452Z,34.40
2022-08-11T10:17:17.014Z,34.80
2022-08-11T10:20:04.543Z,34.80
2022-08-11T10:22:53.120Z,34.40
2022-08-11T10:25:58.300Z,34.30
2022-08-11T10:28:33.659Z,34.00
2022-08-11T10:31:30.539Z,34.20
2022-08-11T10:34:35.070Z,34.10
2022-08-11T10:37:05.568Z,34.10
2022-08-11T10:39:34.209Z,34.20
2022-08-11T10:42:30.226Z,33.70
2022-08-11T10:45:30.054Z,33.60
2022-08-11T10:47:59.114Z,34.00
2022-08-11T10:50:45.364Z,34.20
2022-08-11T10:53:32.711Z,34.00
2022-08-11T10:56:18.581Z,33.70
2022-08-11T10:58:48.129Z,34.00
2022-08-11T11:01:17.675Z,34.00
2022-08-11T11:03:47.966Z,34.20
2022-08-11T11:06:29.449Z,33.90
2022-08-11T11:09:04.717Z,33.90
2022-08-11T11:11:54.652Z,34.00
2022-08-11T11:14:49.143Z,33.70
2022-08-11T11:17:43.565Z,34.10
2022-08-11T11:20:36.749Z,34.40
2022-08-11T11:23:08.888Z,34.50
2022-08-11T11:26:06.303Z,34.40
2022-08-11T11:28:57.965Z,34.70
2022-08-11T11:31:35.009Z,34.90
2022-08-11T11:34:16.034Z,34.50
2022-08-11T11:36:50.458Z,34.80
2022-08-11T11:39:21.441Z,34.70
2022-08-11T11:41:50.729Z,34.40
2022-08-11T11:44:19.196Z,34.70
2022-08-11T11:46:47.646Z,34.90
2022-08-11T11:49:18.634Z,34.50
2022-08-11T11:51:50.105Z,34.00
2022-08-11T11:54:19.595Z,34.50
2022-08-11T11:56:47.418Z,34.90
2022-08-11T11:59:33.690Z,34.50
2022-08-11T12:02:11.966Z,34.90
2022-08-11T12:04:43.549Z,34.60
2022-08-11T12:07:31.308Z,34.70
2022-08-11T12:09:59.960Z,34.80
2022-08-11T12:12:46.299Z,34.90
2022-08-11T12:15:14.615Z,34.90
2022-08-11T12:17:42.614Z,34.90
2022-08-11T12:20:31.946Z,35.00
2022-08-11T12:23:17.795Z,34.50
2022-08-11T12:26:26.474Z,34.90
2022-08-11T12:28:57.933Z,34.30
2022-08-11T12:31:26.326Z,34.80
2022-08-11T12:33:56.007Z,34.80
2022-08-11T12:36:24.214Z,35.00
2022-08-11T12:38:55.249Z,35.20
2022-08-11T12:41:41.599Z,35.20
2022-08-11T12:44:29.407Z,35.50
2022-08-11T12:47:00.664Z,35.50
2022-08-11T12:49:49.455Z,35.40
2022-08-11T12:52:23.303Z,35.60
2022-08-11T12:54:58.946Z,35.40
2022-08-11T12:57:50.978Z,35.40
2022-08-11T13:00:37.155Z,35.10
2022-08-11T13:03:25.747Z,35.50
2022-08-11T13:05:55.773Z,35.50
2022-08-11T13:08:25.867Z,35.60
2022-08-11T13:11:15.696Z,35.40
2022-08-11T13:13:53.538Z,35.60
2022-08-11T13:16:26.254Z,35.20
2022-08-11T13:18:54.694Z,35.10
2022-08-11T13:21:24.005Z,34.80
2022-08-11T13:23:59.688Z,35.00
2022-08-11T13:26:38.783Z,35.30
2022-08-11T13:29:21.077Z,35.30
2022-08-11T13:31:48.872Z,35.20
2022-08-11T13:34:17.567Z,35.10
2022-08-11T13:36:46.507Z,34.80
2022-08-11T13:39:15.251Z,34.90
2022-08-11T13:41:47.800Z,35.00
2022-08-11T13:44:24.844Z,34.80
2022-08-11T13:47:04.325Z,34.80
2022-08-11T13:49:33.015Z,35.00
2022-08-11T13:52:01.225Z,34.50
2022-08-11T13:54:32.045Z,34.90
2022-08-11T13:57:08.170Z,35.20
2022-08-11T13:59:45.301Z,35.00
2022-08-11T14:02:29.123Z,35.10
2022-08-11T14:05:01.695Z,35.10
2022-08-11T14:07:45.236Z,35.00
2022-08-11T14:10:17.433Z,34.40
2022-08-11T14:13:12.296Z,34.40
2022-08-11T14:15:44.467Z,34.70
2022-08-11T14:18:23.977Z,34.90
2022-08-11T14:21:13.506Z,34.90
2022-08-11T14:23:42.756Z,34.80
2022-08-11T14:26:31.615Z,35.10
2022-08-11T14:29:06.991Z,35.10
2022-08-11T14:31:36.878Z,35.40
2022-08-11T14:34:07.483Z,35.40
2022-08-11T14:36:40.631Z,35.50
2022-08-11T14:39:12.636Z,35.80
2022-08-11T14:42:11.356Z,35.80
2022-08-11T14:45:05.076Z,35.80
2022-08-11T14:47:35.950Z,35.70
2022-08-11T14:50:11.422Z,35.30
2022-08-11T14:52:45.440Z,34.90
2022-08-11T14:55:32.562Z,35.00
2022-08-11T14:58:01.732Z,35.30
2022-08-11T15:00:32.030Z,35.30
2022-08-11T15:03:12.606Z,35.30
2022-08-11T15:05:54.235Z,35.40
2022-08-11T15:08:42.319Z,35.40
2022-08-11T15:11:32.355Z,35.10
2022-08-11T15:14:02.236Z,35.30
2022-08-11T15:16:49.705Z,35.40
2022-08-11T15:19:22.663Z,35.30
2022-08-11T15:22:11.427Z,35.30
2022-08-11T15:25:14.423Z,35.20
2022-08-11T15:28:06.101Z,35.10
2022-08-11T15:30:52.761Z,35.20
2022-08-11T15:33:41.091Z,35.10
2022-08-11T15:36:29.058Z,35.10
2022-08-11T15:39:00.756Z,35.00
2022-08-11T15:41:55.112Z,34.70
2022-08-11T15:45:02.048Z,35.00
2022-08-11T15:47:37.806Z,35.30
2022-08-11T15:50:13.655Z,35.40
2022-08-11T15:52:50.765Z,35.50
2022-08-11T15:55:23.578Z,35.40
2022-08-11T15:58:10.451Z,35.20
2022-08-11T16:01:01.239Z,35.40
2022-08-11T16:04:07.493Z,35.40
2022-08-11T16:06:44.110Z,35.60
2022-08-11T16:09:19.123Z,35.20
2022-08-11T16:11:47.549Z,35.10
2022-08-11T16:14:35.526Z,35.10
2022-08-11T16:17:06.204Z,35.10
2022-08-11T16:19:38.000Z,35.20
2022-08-11T16:22:11.340Z,35.10
2022-08-11T16:27:02.834Z,35.10
2022-08-11T16:27:34.538Z,35.00
2022-08-11T16:30:05.204Z,34.90
2022-08-11T16:32:35.128Z,34.90
2022-08-11T16:35:24.068Z,34.60
2022-08-11T16:38:12.403Z,34.70
2022-08-11T16:40:41.090Z,34.60
2022-08-11T16:43:28.232Z,34.60
2022-08-11T16:46:15.710Z,34.60
2022-08-11T16:48:47.205Z,34.60
2022-08-11T16:51:15.969Z,34.70
2022-08-11T16:54:03.548Z,34.90
2022-08-11T16:56:37.152Z,34.80
2022-08-11T16:59:17.011Z,34.70
2022-08-11T17:01:49.705Z,34.60
2022-08-11T17:04:50.251Z,34.30
2022-08-11T17:07:50.166Z,34.50
2022-08-11T17:10:52.454Z,34.40
2022-08-11T17:13:29.136Z,34.50
2022-08-11T17:16:11.601Z,34.50
2022-08-11T17:18:52.512Z,34.60
2022-08-11T17:21:26.272Z,34.40
2022-08-11T17:23:56.108Z,34.50
2022-08-11T17:26:46.977Z,34.30
2022-08-11T17:29:17.355Z,34.30
2022-08-11T17:32:04.426Z,34.20
2022-08-11T17:34:50.267Z,34.20
2022-08-11T17:37:19.620Z,34.20
2022-08-11T17:39:48.786Z,34.20
2022-08-11T17:42:36.396Z,34.10
2022-08-11T17:45:23.082Z,34.10
2022-08-11T17:48:09.426Z,33.90
2022-08-11T17:50:38.760Z,33.90
2022-08-11T17:53:24.594Z,33.80
2022-08-11T17:56:12.014Z,33.80
2022-08-11T17:59:00.527Z,33.70
2022-08-11T18:01:35.469Z,33.50
2022-08-11T18:04:05.004Z,33.50
2022-08-11T18:06:38.408Z,33.30
2022-08-11T18:09:27.624Z,33.30
2022-08-11T18:12:14.441Z,33.00
2022-08-11T18:15:05.894Z,33.10
2022-08-11T18:17:55.331Z,33.10
2022-08-11T18:20:42.182Z,33.10
2022-08-11T18:23:42.011Z,32.90
2022-08-11T18:26:37.482Z,32.90
2022-08-11T18:29:26.258Z,32.80
2022-08-11T18:32:21.163Z,32.70
2022-08-11T18:35:10.718Z,32.70
2022-08-11T18:38:02.030Z,32.60
2022-08-11T18:40:48.000Z,32.40
2022-08-11T18:43:35.934Z,32.20
2022-08-11T18:46:24.622Z,32.20
2022-08-11T18:49:15.678Z,32.00
2022-08-11T18:52:04.878Z,31.90
2022-08-11T18:54:53.557Z,31.90
2022-08-11T18:57:54.123Z,31.80
2022-08-11T19:00:45.058Z,31.50
2022-08-11T19:03:32.757Z,31.40
2022-08-11T19:06:38.450Z,31.30
2022-08-11T19:09:29.093Z,31.20
2022-08-11T19:12:17.458Z,31.00
2022-08-11T19:15:04.430Z,30.90
2022-08-11T19:17:51.225Z,30.80
2022-08-11T19:20:40.059Z,30.80
2022-08-11T19:23:29.338Z,30.60
2022-08-11T19:26:16.440Z,30.60
2022-08-11T19:29:05.308Z,30.60
2022-08-11T19:31:51.100Z,30.50
2022-08-11T19:34:39.583Z,30.30
2022-08-11T19:37:26.260Z,30.30
2022-08-11T19:40:16.511Z,30.30
2022-08-11T19:43:03.784Z,30.20
2022-08-11T19:46:05.832Z,30.20
2022-08-11T19:48:57.450Z,30.10
2022-08-11T19:51:45.340Z,30.00
2022-08-11T19:54:33.142Z,29.90
2022-08-11T19:57:23.231Z,29.90
2022-08-11T20:00:11.169Z,29.90
2022-08-11T20:02:56.565Z,29.80
2022-08-11T20:05:55.299Z,29.60
2022-08-11T20:08:47.767Z,29.70
2022-08-11T20:11:35.375Z,29.60
2022-08-11T20:14:24.694Z,29.50
2022-08-11T20:17:15.514Z,29.50
2022-08-11T20:20:05.756Z,29.30
2022-08-11T20:22:54.743Z,29.30
2022-08-11T20:25:45.971Z,29.30
2022-08-11T20:28:32.495Z,29.20
2022-08-11T20:31:20.978Z,29.20
2022-08-11T20:34:06.829Z,29.00
2022-08-11T20:37:04.099Z,28.90
2022-08-11T20:39:50.778Z,28.90
2022-08-11T20:42:38.003Z,28.80
2022-08-11T20:45:26.628Z,28.80
2022-08-11T20:48:15.306Z,28.60
2022-08-11T20:51:06.373Z,28.70
2022-08-11T20:53:56.397Z,28.70
2022-08-11T20:56:43.988Z,28.70
2022-08-11T20:59:38.448Z,28.70
2022-08-11T21:02:35.426Z,28.60
2022-08-11T21:06:10.466Z,28.50
2022-08-11T21:08:30.126Z,28.50
2022-08-11T21:11:15.835Z,28.50
2022-08-11T21:14:14.490Z,28.40
2022-08-11T21:17:27.851Z,28.30
2022-08-11T21:20:20.593Z,28.10
2022-08-11T21:23:12.310Z,28.00
2022-08-11T21:26:13.641Z,28.00
2022-08-11T21:29:02.198Z,27.90
2022-08-11T21:31:50.141Z,27.80
2022-08-11T21:34:38.754Z,27.60
2022-08-11T21:37:26.176Z,27.60
2022-08-11T21:40:17.423Z,27.60
2022-08-11T21:43:06.214Z,27.50
2022-08-11T21:45:54.250Z,27.40
2022-08-11T21:48:41.408Z,27.40
2022-08-11T21:51:26.834Z,27.40
2022-08-11T21:54:16.241Z,27.30
2022-08-11T21:57:06.345Z,27.10
2022-08-11T22:00:02.374Z,27.00
2022-08-11T22:02:53.056Z,27.00
2022-08-11T22:05:39.935Z,27.00
2022-08-11T22:08:26.958Z,27.00
2022-08-11T22:11:13.325Z,26.90
2022-08-11T22:14:07.655Z,26.70
2022-08-11T22:17:04.789Z,26.90
2022-08-11T22:19:50.871Z,26.90
2022-08-11T22:22:52.059Z,26.90
2022-08-11T22:25:51.414Z,26.70
2022-08-11T22:28:38.772Z,26.60
2022-08-11T22:31:27.556Z,26.40
2022-08-11T22:34:15.500Z,26.50
2022-08-11T22:37:02.709Z,26.20
2022-08-11T22:40:01.661Z,26.30
2022-08-11T22:42:51.017Z,26.30
2022-08-11T22:45:55.207Z,26.40
2022-08-11T22:48:47.014Z,26.20
2022-08-11T22:51:34.015Z,26.10
2022-08-11T22:54:21.363Z,25.90
2022-08-11T22:57:08.105Z,26.10
2022-08-11T22:59:54.893Z,26.30
2022-08-11T23:02:41.276Z,26.00
2022-08-11T23:05:32.806Z,26.00
2022-08-11T23:08:21.475Z,25.90
2022-08-11T23:11:07.562Z,25.70
2022-08-11T23:13:53.663Z,25.80
2022-08-11T23:16:39.714Z,25.90
2022-08-11T23:20:08.344Z,25.80
2022-08-11T23:22:43.747Z,25.60
2022-08-11T23:25:35.443Z,25.60
2022-08-11T23:28:22.677Z,25.80
2022-08-11T23:31:11.742Z,25.70
2022-08-11T23:34:00.684Z,25.50
2022-08-11T23:36:46.394Z,25.70
2022-08-11T23:39:34.593Z,25.50
2022-08-11T23:42:21.300Z,25.20
2022-08-11T23:45:07.265Z,25.00
2022-08-11T23:48:00.135Z,25.10
2022-08-11T23:50:46.420Z,25.00
2022-08-11T23:53:32.647Z,25.00
2022-08-11T23:56:21.749Z,24.80
2022-08-11T23:59:14.990Z,24.80
